sensor_id;sensor_type;location;lat;lon;timestamp;P1;durP1;ratioP1;P2;durP2;ratioP2
58446;SDS011;44240;51.840;7.258;2022-08-25T00:01:43;5.55;;;2.88;;
58446;SDS011;44240;51.840;7.258;2022-08-25T00:04:14;4.18;;;3.00;;
58446;SDS011;44240;51.840;7.258;2022-08-25T00:06:41;3.38;;;2.88;;
58446;SDS011;44240;51.840;7.258;2022-08-25T00:09:09;5.05;;;2.97;;
58446;SDS011;44240;51.840;7.258;2022-08-25T00:11:37;5.07;;;2.65;;
58446;SDS011;44240;51.840;7.258;2022-08-25T00:14:05;3.83;;;2.95;;
58446;SDS011;44240;51.840;7.258;2022-08-25T00:16:33;6.22;;;2.70;;
58446;SDS011;44240;51.840;7.258;2022-08-25T00:19:01;6.47;;;3.38;;
58446;SDS011;44240;51.840;7.258;2022-08-25T00:21:30;5.57;;;3.38;;
58446;SDS011;44240;51.840;7.258;2022-08-25T00:23:56;6.82;;;2.70;;
58446;SDS011;44240;51.840;7.258;2022-08-25T00:26:22;3.38;;;2.83;;
58446;SDS011;44240;51.840;7.258;2022-08-25T00:28:48;7.72;;;3.30;;
58446;SDS011;44240;51.840;7.258;2022-08-25T00:31:17;6.53;;;3.35;;
58446;SDS011;44240;51.840;7.258;2022-08-25T00:33:47;5.88;;;3.70;;
58446;SDS011;44240;51.840;7.258;2022-08-25T00:36:15;3.90;;;2.78;;
58446;SDS011;44240;51.840;7.258;2022-08-25T00:38:43;3.42;;;2.60;;
58446;SDS011;44240;51.840;7.258;2022-08-25T00:41:10;4.65;;;3.22;;
58446;SDS011;44240;51.840;7.258;2022-08-25T00:43:58;7.30;;;2.80;;
58446;SDS011;44240;51.840;7.258;2022-08-25T00:46:27;3.33;;;2.67;;
58446;SDS011;44240;51.840;7.258;2022-08-25T00:48:56;5.03;;;2.55;;
58446;SDS011;44240;51.840;7.258;2022-08-25T00:51:42;7.43;;;2.95;;
58446;SDS011;44240;51.840;7.258;2022-08-25T00:54:16;3.58;;;2.65;;
58446;SDS011;44240;51.840;7.258;2022-08-25T00:56:51;5.90;;;2.88;;
58446;SDS011;44240;51.840;7.258;2022-08-25T00:59:20;4.00;;;2.80;;
58446;SDS011;44240;51.840;7.258;2022-08-25T01:01:47;3.78;;;3.33;;
58446;SDS011;44240;51.840;7.258;2022-08-25T01:04:13;3.17;;;2.88;;
58446;SDS011;44240;51.840;7.258;2022-08-25T01:06:40;3.22;;;2.88;;
58446;SDS011;44240;51.840;7.258;2022-08-25T01:09:11;4.95;;;3.00;;
58446;SDS011;44240;51.840;7.258;2022-08-25T01:11:38;4.57;;;2.90;;
58446;SDS011;44240;51.840;7.258;2022-08-25T01:14:05;3.20;;;2.90;;
58446;SDS011;44240;51.840;7.258;2022-08-25T01:16:32;6.85;;;2.90;;
58446;SDS011;44240;51.840;7.258;2022-08-25T01:18:59;4.00;;;2.80;;
58446;SDS011;44240;51.840;7.258;2022-08-25T01:21:26;4.47;;;3.00;;
58446;SDS011;44240;51.840;7.258;2022-08-25T01:23:52;4.38;;;2.97;;
58446;SDS011;44240;51.840;7.258;2022-08-25T01:26:23;3.35;;;3.05;;
58446;SDS011;44240;51.840;7.258;2022-08-25T01:28:51;7.40;;;3.30;;
58446;SDS011;44240;51.840;7.258;2022-08-25T01:34:03;4.03;;;2.80;;
58446;SDS011;44240;51.840;7.258;2022-08-25T01:36:29;5.35;;;3.13;;
58446;SDS011;44240;51.840;7.258;2022-08-25T01:38:55;7.30;;;3.15;;
58446;SDS011;44240;51.840;7.258;2022-08-25T01:44:13;4.82;;;2.95;;
58446;SDS011;44240;51.840;7.258;2022-08-25T01:46:39;6.05;;;2.90;;
58446;SDS011;44240;51.840;7.258;2022-08-25T01:49:05;4.35;;;2.92;;
58446;SDS011;44240;51.840;7.258;2022-08-25T01:51:37;3.72;;;2.83;;
58446;SDS011;44240;51.840;7.258;2022-08-25T01:54:07;5.03;;;3.13;;
58446;SDS011;44240;51.840;7.258;2022-08-25T01:56:32;3.85;;;3.05;;
58446;SDS011;44240;51.840;7.258;2022-08-25T01:58:58;3.50;;;3.20;;
58446;SDS011;44240;51.840;7.258;2022-08-25T02:01:24;5.05;;;3.20;;
58446;SDS011;44240;51.840;7.258;2022-08-25T02:03:51;4.10;;;3.30;;
58446;SDS011;44240;51.840;7.258;2022-08-25T02:06:20;3.55;;;3.25;;
58446;SDS011;44240;51.840;7.258;2022-08-25T02:08:52;3.53;;;2.77;;
58446;SDS011;44240;51.840;7.258;2022-08-25T02:11:21;6.10;;;3.15;;
58446;SDS011;44240;51.840;7.258;2022-08-25T02:13:48;5.30;;;3.20;;
58446;SDS011;44240;51.840;7.258;2022-08-25T02:16:15;5.30;;;3.42;;
58446;SDS011;44240;51.840;7.258;2022-08-25T02:18:44;3.33;;;3.00;;
58446;SDS011;44240;51.840;7.258;2022-08-25T02:21:12;4.63;;;3.03;;
58446;SDS011;44240;51.840;7.258;2022-08-25T02:23:38;4.65;;;3.53;;
58446;SDS011;44240;51.840;7.258;2022-08-25T02:26:05;5.72;;;3.22;;
58446;SDS011;44240;51.840;7.258;2022-08-25T02:28:31;4.85;;;2.90;;
58446;SDS011;44240;51.840;7.258;2022-08-25T02:30:57;3.97;;;2.83;;
58446;SDS011;44240;51.840;7.258;2022-08-25T02:33:22;6.07;;;2.90;;
58446;SDS011;44240;51.840;7.258;2022-08-25T02:35:48;5.43;;;3.05;;
58446;SDS011;44240;51.840;7.258;2022-08-25T02:38:13;4.32;;;3.10;;
58446;SDS011;44240;51.840;7.258;2022-08-25T02:40:39;4.10;;;3.22;;
58446;SDS011;44240;51.840;7.258;2022-08-25T02:43:04;4.85;;;3.22;;
58446;SDS011;44240;51.840;7.258;2022-08-25T02:45:30;14.00;;;3.47;;
58446;SDS011;44240;51.840;7.258;2022-08-25T02:47:56;6.20;;;3.15;;
58446;SDS011;44240;51.840;7.258;2022-08-25T02:50:21;6.57;;;3.40;;
58446;SDS011;44240;51.840;7.258;2022-08-25T02:52:47;4.38;;;2.92;;
58446;SDS011;44240;51.840;7.258;2022-08-25T02:55:15;3.47;;;2.90;;
58446;SDS011;44240;51.840;7.258;2022-08-25T02:57:41;4.13;;;3.05;;
58446;SDS011;44240;51.840;7.258;2022-08-25T03:00:07;3.63;;;3.00;;
58446;SDS011;44240;51.840;7.258;2022-08-25T03:02:34;4.47;;;3.25;;
58446;SDS011;44240;51.840;7.258;2022-08-25T03:05:01;4.80;;;3.28;;
58446;SDS011;44240;51.840;7.258;2022-08-25T03:07:27;3.95;;;3.35;;
58446;SDS011;44240;51.840;7.258;2022-08-25T03:09:52;3.58;;;3.20;;
58446;SDS011;44240;51.840;7.258;2022-08-25T03:12:17;6.47;;;3.50;;
58446;SDS011;44240;51.840;7.258;2022-08-25T03:14:44;3.47;;;3.17;;
58446;SDS011;44240;51.840;7.258;2022-08-25T03:17:09;6.55;;;4.03;;
58446;SDS011;44240;51.840;7.258;2022-08-25T03:19:35;4.32;;;3.50;;
58446;SDS011;44240;51.840;7.258;2022-08-25T03:22:00;4.68;;;3.40;;
58446;SDS011;44240;51.840;7.258;2022-08-25T03:24:26;5.93;;;3.40;;
58446;SDS011;44240;51.840;7.258;2022-08-25T03:26:52;4.20;;;3.25;;
58446;SDS011;44240;51.840;7.258;2022-08-25T03:29:24;5.53;;;3.05;;
58446;SDS011;44240;51.840;7.258;2022-08-25T03:31:52;5.00;;;3.53;;
58446;SDS011;44240;51.840;7.258;2022-08-25T03:34:19;4.57;;;3.33;;
58446;SDS011;44240;51.840;7.258;2022-08-25T03:36:48;4.50;;;3.22;;
58446;SDS011;44240;51.840;7.258;2022-08-25T03:39:16;5.10;;;3.67;;
58446;SDS011;44240;51.840;7.258;2022-08-25T03:41:43;4.22;;;3.50;;
58446;SDS011;44240;51.840;7.258;2022-08-25T03:44:09;5.00;;;3.20;;
58446;SDS011;44240;51.840;7.258;2022-08-25T03:46:42;4.63;;;3.67;;
58446;SDS011;44240;51.840;7.258;2022-08-25T03:49:14;4.63;;;3.30;;
58446;SDS011;44240;51.840;7.258;2022-08-25T03:51:45;3.70;;;3.35;;
58446;SDS011;44240;51.840;7.258;2022-08-25T03:54:12;10.10;;;3.70;;
58446;SDS011;44240;51.840;7.258;2022-08-25T03:56:39;3.70;;;3.40;;
58446;SDS011;44240;51.840;7.258;2022-08-25T03:59:06;7.63;;;4.13;;
58446;SDS011;44240;51.840;7.258;2022-08-25T04:01:35;5.32;;;3.35;;
58446;SDS011;44240;51.840;7.258;2022-08-25T04:04:02;3.85;;;3.45;;
58446;SDS011;44240;51.840;7.258;2022-08-25T04:06:28;5.00;;;3.65;;
58446;SDS011;44240;51.840;7.258;2022-08-25T04:08:54;7.68;;;3.60;;
58446;SDS011;44240;51.840;7.258;2022-08-25T04:11:22;11.38;;;4.18;;
58446;SDS011;44240;51.840;7.258;2022-08-25T04:13:48;9.00;;;4.05;;
58446;SDS011;44240;51.840;7.258;2022-08-25T04:16:17;5.15;;;3.47;;
58446;SDS011;44240;51.840;7.258;2022-08-25T04:18:43;6.82;;;3.80;;
58446;SDS011;44240;51.840;7.258;2022-08-25T04:21:09;5.38;;;4.32;;
58446;SDS011;44240;51.840;7.258;2022-08-25T04:23:37;5.75;;;3.60;;
58446;SDS011;44240;51.840;7.258;2022-08-25T04:26:15;5.47;;;3.53;;
58446;SDS011;44240;51.840;7.258;2022-08-25T04:28:43;6.68;;;3.75;;
58446;SDS011;44240;51.840;7.258;2022-08-25T04:31:11;5.28;;;3.90;;
58446;SDS011;44240;51.840;7.258;2022-08-25T04:33:38;9.13;;;4.20;;
58446;SDS011;44240;51.840;7.258;2022-08-25T04:36:06;4.57;;;3.47;;
58446;SDS011;44240;51.840;7.258;2022-08-25T04:38:33;7.45;;;4.15;;
58446;SDS011;44240;51.840;7.258;2022-08-25T04:41:00;6.68;;;3.60;;
58446;SDS011;44240;51.840;7.258;2022-08-25T04:43:27;9.85;;;4.88;;
58446;SDS011;44240;51.840;7.258;2022-08-25T04:45:54;5.43;;;4.22;;
58446;SDS011;44240;51.840;7.258;2022-08-25T04:48:20;4.20;;;3.55;;
58446;SDS011;44240;51.840;7.258;2022-08-25T04:50:46;4.70;;;4.03;;
58446;SDS011;44240;51.840;7.258;2022-08-25T04:53:12;5.80;;;4.38;;
58446;SDS011;44240;51.840;7.258;2022-08-25T04:55:39;4.85;;;4.40;;
58446;SDS011;44240;51.840;7.258;2022-08-25T04:58:05;7.95;;;4.40;;
58446;SDS011;44240;51.840;7.258;2022-08-25T05:00:32;5.85;;;4.00;;
58446;SDS011;44240;51.840;7.258;2022-08-25T05:03:00;9.25;;;3.85;;
58446;SDS011;44240;51.840;7.258;2022-08-25T05:05:25;7.90;;;3.83;;
58446;SDS011;44240;51.840;7.258;2022-08-25T05:07:51;5.53;;;5.03;;
58446;SDS011;44240;51.840;7.258;2022-08-25T05:10:17;5.63;;;4.25;;
58446;SDS011;44240;51.840;7.258;2022-08-25T05:12:44;25.50;;;6.50;;
58446;SDS011;44240;51.840;7.258;2022-08-25T05:15:09;11.63;;;4.80;;
58446;SDS011;44240;51.840;7.258;2022-08-25T05:17:54;7.93;;;4.23;;
58446;SDS011;44240;51.840;7.258;2022-08-25T05:20:20;6.25;;;4.43;;
58446;SDS011;44240;51.840;7.258;2022-08-25T05:22:46;9.95;;;4.50;;
58446;SDS011;44240;51.840;7.258;2022-08-25T05:25:12;8.13;;;4.53;;
58446;SDS011;44240;51.840;7.258;2022-08-25T05:27:38;7.07;;;4.82;;
58446;SDS011;44240;51.840;7.258;2022-08-25T05:30:05;5.30;;;3.85;;
58446;SDS011;44240;51.840;7.258;2022-08-25T05:32:31;7.50;;;4.40;;
58446;SDS011;44240;51.840;7.258;2022-08-25T05:34:57;5.65;;;4.78;;
58446;SDS011;44240;51.840;7.258;2022-08-25T05:37:23;5.25;;;4.35;;
58446;SDS011;44240;51.840;7.258;2022-08-25T05:39:48;8.23;;;4.15;;
58446;SDS011;44240;51.840;7.258;2022-08-25T05:42:14;6.93;;;4.45;;
58446;SDS011;44240;51.840;7.258;2022-08-25T05:44:40;11.63;;;6.93;;
58446;SDS011;44240;51.840;7.258;2022-08-25T05:47:05;7.32;;;4.90;;
58446;SDS011;44240;51.840;7.258;2022-08-25T05:49:31;5.82;;;4.50;;
58446;SDS011;44240;51.840;7.258;2022-08-25T05:51:57;7.30;;;4.63;;
58446;SDS011;44240;51.840;7.258;2022-08-25T05:54:23;6.25;;;4.97;;
58446;SDS011;44240;51.840;7.258;2022-08-25T05:56:49;6.93;;;4.88;;
58446;SDS011;44240;51.840;7.258;2022-08-25T05:59:15;5.68;;;4.60;;
58446;SDS011;44240;51.840;7.258;2022-08-25T06:01:40;4.82;;;4.32;;
58446;SDS011;44240;51.840;7.258;2022-08-25T06:04:25;6.37;;;4.60;;
58446;SDS011;44240;51.840;7.258;2022-08-25T06:06:51;4.80;;;4.30;;
58446;SDS011;44240;51.840;7.258;2022-08-25T06:09:18;7.22;;;5.53;;
58446;SDS011;44240;51.840;7.258;2022-08-25T06:11:46;6.38;;;4.78;;
58446;SDS011;44240;51.840;7.258;2022-08-25T06:14:12;7.53;;;5.95;;
58446;SDS011;44240;51.840;7.258;2022-08-25T06:16:39;5.20;;;4.43;;
58446;SDS011;44240;51.840;7.258;2022-08-25T06:19:05;11.85;;;5.40;;
58446;SDS011;44240;51.840;7.258;2022-08-25T06:21:33;10.98;;;5.30;;
58446;SDS011;44240;51.840;7.258;2022-08-25T06:23:58;7.40;;;5.28;;
58446;SDS011;44240;51.840;7.258;2022-08-25T06:26:24;8.32;;;5.07;;
58446;SDS011;44240;51.840;7.258;2022-08-25T06:28:50;8.65;;;5.00;;
58446;SDS011;44240;51.840;7.258;2022-08-25T06:31:16;8.38;;;5.32;;
58446;SDS011;44240;51.840;7.258;2022-08-25T06:33:43;7.63;;;5.10;;
58446;SDS011;44240;51.840;7.258;2022-08-25T06:36:08;10.10;;;5.53;;
58446;SDS011;44240;51.840;7.258;2022-08-25T06:38:34;5.85;;;4.88;;
58446;SDS011;44240;51.840;7.258;2022-08-25T06:41:01;6.93;;;5.10;;
58446;SDS011;44240;51.840;7.258;2022-08-25T06:43:28;6.03;;;5.10;;
58446;SDS011;44240;51.840;7.258;2022-08-25T06:45:54;6.93;;;5.60;;
58446;SDS011;44240;51.840;7.258;2022-08-25T06:48:19;6.38;;;5.00;;
58446;SDS011;44240;51.840;7.258;2022-08-25T06:50:45;8.05;;;5.82;;
58446;SDS011;44240;51.840;7.258;2022-08-25T06:53:11;7.97;;;5.63;;
58446;SDS011;44240;51.840;7.258;2022-08-25T06:55:36;11.50;;;6.07;;
58446;SDS011;44240;51.840;7.258;2022-08-25T06:58:03;7.10;;;5.15;;
58446;SDS011;44240;51.840;7.258;2022-08-25T07:00:29;7.82;;;5.57;;
58446;SDS011;44240;51.840;7.258;2022-08-25T07:02:55;9.77;;;5.63;;
58446;SDS011;44240;51.840;7.258;2022-08-25T07:05:21;6.18;;;4.80;;
58446;SDS011;44240;51.840;7.258;2022-08-25T07:07:47;5.07;;;4.60;;
58446;SDS011;44240;51.840;7.258;2022-08-25T07:10:14;10.52;;;5.38;;
58446;SDS011;44240;51.840;7.258;2022-08-25T07:12:40;9.63;;;5.35;;
58446;SDS011;44240;51.840;7.258;2022-08-25T07:15:05;6.05;;;5.07;;
58446;SDS011;44240;51.840;7.258;2022-08-25T07:17:31;5.22;;;4.70;;
58446;SDS011;44240;51.840;7.258;2022-08-25T07:19:57;8.43;;;4.47;;
58446;SDS011;44240;51.840;7.258;2022-08-25T07:22:23;9.57;;;5.55;;
58446;SDS011;44240;51.840;7.258;2022-08-25T07:24:49;6.50;;;5.15;;
58446;SDS011;44240;51.840;7.258;2022-08-25T07:27:14;6.38;;;5.13;;
58446;SDS011;44240;51.840;7.258;2022-08-25T07:29:40;8.18;;;5.70;;
58446;SDS011;44240;51.840;7.258;2022-08-25T07:32:13;8.15;;;5.28;;
58446;SDS011;44240;51.840;7.258;2022-08-25T07:34:39;7.35;;;5.07;;
58446;SDS011;44240;51.840;7.258;2022-08-25T07:37:23;8.13;;;5.28;;
58446;SDS011;44240;51.840;7.258;2022-08-25T07:39:49;8.68;;;5.13;;
58446;SDS011;44240;51.840;7.258;2022-08-25T07:42:15;5.78;;;5.07;;
58446;SDS011;44240;51.840;7.258;2022-08-25T07:44:40;6.78;;;4.32;;
58446;SDS011;44240;51.840;7.258;2022-08-25T07:47:06;5.47;;;4.82;;
58446;SDS011;44240;51.840;7.258;2022-08-25T07:49:32;7.88;;;4.60;;
58446;SDS011;44240;51.840;7.258;2022-08-25T07:51:58;6.13;;;4.88;;
58446;SDS011;44240;51.840;7.258;2022-08-25T07:54:24;6.22;;;5.22;;
58446;SDS011;44240;51.840;7.258;2022-08-25T07:56:52;5.50;;;5.00;;
58446;SDS011;44240;51.840;7.258;2022-08-25T07:59:18;7.80;;;4.80;;
58446;SDS011;44240;51.840;7.258;2022-08-25T08:01:43;5.70;;;4.60;;
58446;SDS011;44240;51.840;7.258;2022-08-25T08:04:09;5.30;;;4.82;;
58446;SDS011;44240;51.840;7.258;2022-08-25T08:06:35;6.63;;;5.40;;
58446;SDS011;44240;51.840;7.258;2022-08-25T08:09:01;7.80;;;5.05;;
58446;SDS011;44240;51.840;7.258;2022-08-25T08:11:28;8.35;;;4.82;;
58446;SDS011;44240;51.840;7.258;2022-08-25T08:14:04;7.57;;;5.43;;
58446;SDS011;44240;51.840;7.258;2022-08-25T08:16:31;6.30;;;5.25;;
58446;SDS011;44240;51.840;7.258;2022-08-25T08:18:57;6.88;;;5.70;;
58446;SDS011;44240;51.840;7.258;2022-08-25T08:21:25;6.32;;;4.70;;
58446;SDS011;44240;51.840;7.258;2022-08-25T08:23:54;6.45;;;4.82;;
58446;SDS011;44240;51.840;7.258;2022-08-25T08:26:21;8.23;;;5.07;;
58446;SDS011;44240;51.840;7.258;2022-08-25T08:28:48;6.43;;;5.00;;
58446;SDS011;44240;51.840;7.258;2022-08-25T08:31:15;4.88;;;4.38;;
58446;SDS011;44240;51.840;7.258;2022-08-25T08:33:44;6.50;;;4.70;;
58446;SDS011;44240;51.840;7.258;2022-08-25T08:36:11;9.95;;;4.63;;
58446;SDS011;44240;51.840;7.258;2022-08-25T08:38:37;6.03;;;4.90;;
58446;SDS011;44240;51.840;7.258;2022-08-25T08:41:09;5.45;;;4.82;;
58446;SDS011;44240;51.840;7.258;2022-08-25T08:44:18;4.70;;;4.13;;
58446;SDS011;44240;51.840;7.258;2022-08-25T08:46:58;7.93;;;4.88;;
58446;SDS011;44240;51.840;7.258;2022-08-25T08:49:29;6.78;;;5.10;;
58446;SDS011;44240;51.840;7.258;2022-08-25T08:52:08;7.50;;;5.07;;
58446;SDS011;44240;51.840;7.258;2022-08-25T08:54:37;6.03;;;4.80;;
58446;SDS011;44240;51.840;7.258;2022-08-25T08:57:09;7.88;;;4.70;;
58446;SDS011;44240;51.840;7.258;2022-08-25T08:59:42;8.18;;;5.35;;
58446;SDS011;44240;51.840;7.258;2022-08-25T09:02:21;7.03;;;4.93;;
58446;SDS011;44240;51.840;7.258;2022-08-25T09:04:58;4.95;;;4.45;;
58446;SDS011;44240;51.840;7.258;2022-08-25T09:07:32;5.97;;;5.03;;
58446;SDS011;44240;51.840;7.258;2022-08-25T09:10:03;4.95;;;4.55;;
58446;SDS011;44240;51.840;7.258;2022-08-25T09:18:12;5.50;;;4.53;;
58446;SDS011;44240;51.840;7.258;2022-08-25T09:21:13;5.90;;;4.95;;
58446;SDS011;44240;51.840;7.258;2022-08-25T09:29:45;6.88;;;5.07;;
58446;SDS011;44240;51.840;7.258;2022-08-25T09:32:13;5.68;;;4.93;;
58446;SDS011;44240;51.840;7.258;2022-08-25T09:34:41;6.78;;;5.30;;
58446;SDS011;44240;51.840;7.258;2022-08-25T09:37:07;5.22;;;4.25;;
58446;SDS011;44240;51.840;7.258;2022-08-25T09:39:33;5.43;;;4.57;;
58446;SDS011;44240;51.840;7.258;2022-08-25T09:42:00;7.95;;;5.03;;
58446;SDS011;44240;51.840;7.258;2022-08-25T09:44:36;6.05;;;4.78;;
58446;SDS011;44240;51.840;7.258;2022-08-25T09:47:18;6.07;;;4.22;;
58446;SDS011;44240;51.840;7.258;2022-08-25T09:49:48;6.38;;;4.97;;
58446;SDS011;44240;51.840;7.258;2022-08-25T09:52:24;6.03;;;4.68;;
58446;SDS011;44240;51.840;7.258;2022-08-25T09:55:00;5.45;;;4.38;;
58446;SDS011;44240;51.840;7.258;2022-08-25T09:57:51;4.97;;;4.47;;
58446;SDS011;44240;51.840;7.258;2022-08-25T10:03:02;5.88;;;4.78;;
58446;SDS011;44240;51.840;7.258;2022-08-25T10:05:28;5.70;;;4.28;;
58446;SDS011;44240;51.840;7.258;2022-08-25T10:07:59;6.78;;;4.57;;
58446;SDS011;44240;51.840;7.258;2022-08-25T10:10:32;5.28;;;4.78;;
58446;SDS011;44240;51.840;7.258;2022-08-25T10:13:03;5.32;;;4.82;;
58446;SDS011;44240;51.840;7.258;2022-08-25T10:15:42;6.45;;;5.38;;
58446;SDS011;44240;51.840;7.258;2022-08-25T10:18:20;5.85;;;4.97;;
58446;SDS011;44240;51.840;7.258;2022-08-25T10:21:03;5.22;;;4.63;;
58446;SDS011;44240;51.840;7.258;2022-08-25T10:23:33;5.93;;;4.65;;
58446;SDS011;44240;51.840;7.258;2022-08-25T10:26:04;5.60;;;5.10;;
58446;SDS011;44240;51.840;7.258;2022-08-25T10:31:44;5.30;;;4.80;;
58446;SDS011;44240;51.840;7.258;2022-08-25T10:34:43;5.90;;;5.30;;
58446;SDS011;44240;51.840;7.258;2022-08-25T10:37:26;7.47;;;5.20;;
58446;SDS011;44240;51.840;7.258;2022-08-25T10:50:51;5.25;;;4.20;;
58446;SDS011;44240;51.840;7.258;2022-08-25T10:53:56;4.35;;;3.95;;
58446;SDS011;44240;51.840;7.258;2022-08-25T11:01:39;6.03;;;4.97;;
58446;SDS011;44240;51.840;7.258;2022-08-25T11:04:34;6.25;;;4.50;;
58446;SDS011;44240;51.840;7.258;2022-08-25T11:07:08;8.45;;;4.28;;
58446;SDS011;44240;51.840;7.258;2022-08-25T11:09:49;6.22;;;4.43;;
58446;SDS011;44240;51.840;7.258;2022-08-25T11:12:32;4.47;;;4.05;;
58446;SDS011;44240;51.840;7.258;2022-08-25T11:15:06;4.78;;;3.55;;
58446;SDS011;44240;51.840;7.258;2022-08-25T11:17:58;5.88;;;4.00;;
58446;SDS011;44240;51.840;7.258;2022-08-25T11:20:53;7.03;;;4.57;;
58446;SDS011;44240;51.840;7.258;2022-08-25T11:23:20;5.70;;;3.95;;
58446;SDS011;44240;51.840;7.258;2022-08-25T11:25:50;4.13;;;3.75;;
58446;SDS011;44240;51.840;7.258;2022-08-25T11:31:07;5.43;;;3.97;;
58446;SDS011;44240;51.840;7.258;2022-08-25T11:33:34;4.43;;;3.80;;
58446;SDS011;44240;51.840;7.258;2022-08-25T11:36:26;4.88;;;3.63;;
58446;SDS011;44240;51.840;7.258;2022-08-25T11:44:38;4.22;;;3.83;;
58446;SDS011;44240;51.840;7.258;2022-08-25T11:49:48;3.60;;;3.30;;
58446;SDS011;44240;51.840;7.258;2022-08-25T11:57:35;4.80;;;3.40;;
58446;SDS011;44240;51.840;7.258;2022-08-25T12:00:11;4.00;;;3.60;;
58446;SDS011;44240;51.840;7.258;2022-08-25T12:02:40;5.50;;;3.00;;
58446;SDS011;44240;51.840;7.258;2022-08-25T12:16:58;3.63;;;2.75;;
58446;SDS011;44240;51.840;7.258;2022-08-25T12:21:49;5.85;;;3.22;;
58446;SDS011;44240;51.840;7.258;2022-08-25T12:24:21;4.35;;;3.38;;
58446;SDS011;44240;51.840;7.258;2022-08-25T12:30:00;3.67;;;2.97;;
58446;SDS011;44240;51.840;7.258;2022-08-25T12:32:45;3.33;;;2.50;;
58446;SDS011;44240;51.840;7.258;2022-08-25T12:41:12;3.10;;;2.80;;
58446;SDS011;44240;51.840;7.258;2022-08-25T12:43:40;3.55;;;2.72;;
58446;SDS011;44240;51.840;7.258;2022-08-25T12:48:53;3.05;;;2.47;;
58446;SDS011;44240;51.840;7.258;2022-08-25T12:51:45;4.47;;;2.38;;
58446;SDS011;44240;51.840;7.258;2022-08-25T12:54:30;3.05;;;2.42;;
58446;SDS011;44240;51.840;7.258;2022-08-25T12:57:02;4.50;;;2.72;;
58446;SDS011;44240;51.840;7.258;2022-08-25T12:59:48;4.40;;;2.80;;
58446;SDS011;44240;51.840;7.258;2022-08-25T13:02:35;4.20;;;3.10;;
58446;SDS011;44240;51.840;7.258;2022-08-25T13:10:50;7.43;;;3.25;;
58446;SDS011;44240;51.840;7.258;2022-08-25T13:16:22;2.97;;;2.53;;
58446;SDS011;44240;51.840;7.258;2022-08-25T13:18:51;4.82;;;2.60;;
58446;SDS011;44240;51.840;7.258;2022-08-25T13:21:22;4.72;;;2.97;;
58446;SDS011;44240;51.840;7.258;2022-08-25T13:23:52;4.50;;;2.95;;
58446;SDS011;44240;51.840;7.258;2022-08-25T13:26:23;3.25;;;2.95;;
58446;SDS011;44240;51.840;7.258;2022-08-25T13:28:56;3.78;;;2.83;;
58446;SDS011;44240;51.840;7.258;2022-08-25T13:31:36;3.28;;;2.97;;
58446;SDS011;44240;51.840;7.258;2022-08-25T13:34:16;4.97;;;3.20;;
58446;SDS011;44240;51.840;7.258;2022-08-25T13:36:44;3.78;;;3.35;;
58446;SDS011;44240;51.840;7.258;2022-08-25T13:39:30;4.82;;;3.13;;
58446;SDS011;44240;51.840;7.258;2022-08-25T13:41:58;3.95;;;3.20;;
58446;SDS011;44240;51.840;7.258;2022-08-25T13:44:25;3.45;;;3.15;;
58446;SDS011;44240;51.840;7.258;2022-08-25T13:47:07;4.88;;;3.25;;
58446;SDS011;44240;51.840;7.258;2022-08-25T13:49:42;5.75;;;3.50;;
58446;SDS011;44240;51.840;7.258;2022-08-25T13:52:27;3.65;;;3.08;;
58446;SDS011;44240;51.840;7.258;2022-08-25T13:54:59;5.25;;;4.15;;
58446;SDS011;44240;51.840;7.258;2022-08-25T13:57:26;4.30;;;3.90;;
58446;SDS011;44240;51.840;7.258;2022-08-25T13:59:55;5.90;;;3.83;;
58446;SDS011;44240;51.840;7.258;2022-08-25T14:02:42;6.07;;;3.88;;
58446;SDS011;44240;51.840;7.258;2022-08-25T14:05:16;10.45;;;4.28;;
58446;SDS011;44240;51.840;7.258;2022-08-25T14:07:56;5.93;;;3.58;;
58446;SDS011;44240;51.840;7.258;2022-08-25T14:15:51;5.60;;;3.95;;
58446;SDS011;44240;51.840;7.258;2022-08-25T14:18:18;4.43;;;4.03;;
58446;SDS011;44240;51.840;7.258;2022-08-25T14:20:50;5.70;;;3.97;;
58446;SDS011;44240;51.840;7.258;2022-08-25T14:23:22;5.65;;;3.95;;
58446;SDS011;44240;51.840;7.258;2022-08-25T14:25:51;7.20;;;3.67;;
58446;SDS011;44240;51.840;7.258;2022-08-25T14:28:20;6.82;;;3.88;;
58446;SDS011;44240;51.840;7.258;2022-08-25T14:30:58;4.53;;;3.75;;
58446;SDS011;44240;51.840;7.258;2022-08-25T14:33:29;5.05;;;4.35;;
58446;SDS011;44240;51.840;7.258;2022-08-25T14:35:59;10.35;;;4.20;;
58446;SDS011;44240;51.840;7.258;2022-08-25T14:38:27;8.35;;;4.10;;
58446;SDS011;44240;51.840;7.258;2022-08-25T14:40:52;8.48;;;4.40;;
58446;SDS011;44240;51.840;7.258;2022-08-25T14:43:18;4.10;;;3.70;;
58446;SDS011;44240;51.840;7.258;2022-08-25T14:45:44;5.70;;;4.45;;
58446;SDS011;44240;51.840;7.258;2022-08-25T14:48:13;4.50;;;4.03;;
58446;SDS011;44240;51.840;7.258;2022-08-25T14:50:59;5.63;;;4.13;;
58446;SDS011;44240;51.840;7.258;2022-08-25T14:53:27;5.50;;;4.32;;
58446;SDS011;44240;51.840;7.258;2022-08-25T14:55:53;6.18;;;4.00;;
58446;SDS011;44240;51.840;7.258;2022-08-25T14:58:21;5.85;;;4.13;;
58446;SDS011;44240;51.840;7.258;2022-08-25T15:00:47;5.65;;;4.30;;
58446;SDS011;44240;51.840;7.258;2022-08-25T15:03:15;4.68;;;3.65;;
58446;SDS011;44240;51.840;7.258;2022-08-25T15:05:43;8.38;;;4.43;;
58446;SDS011;44240;51.840;7.258;2022-08-25T15:08:09;7.15;;;4.50;;
58446;SDS011;44240;51.840;7.258;2022-08-25T15:10:53;5.10;;;4.18;;
58446;SDS011;44240;51.840;7.258;2022-08-25T15:13:19;5.47;;;4.07;;
58446;SDS011;44240;51.840;7.258;2022-08-25T15:15:45;9.80;;;4.65;;
58446;SDS011;44240;51.840;7.258;2022-08-25T15:18:11;4.82;;;4.22;;
58446;SDS011;44240;51.840;7.258;2022-08-25T15:20:38;7.78;;;4.15;;
58446;SDS011;44240;51.840;7.258;2022-08-25T15:23:03;9.18;;;4.25;;
58446;SDS011;44240;51.840;7.258;2022-08-25T15:25:29;4.13;;;3.72;;
58446;SDS011;44240;51.840;7.258;2022-08-25T15:27:55;9.70;;;4.47;;
58446;SDS011;44240;51.840;7.258;2022-08-25T15:30:21;6.32;;;4.55;;
58446;SDS011;44240;51.840;7.258;2022-08-25T15:32:46;7.47;;;4.80;;
58446;SDS011;44240;51.840;7.258;2022-08-25T15:35:12;6.20;;;4.40;;
58446;SDS011;44240;51.840;7.258;2022-08-25T15:37:38;6.97;;;4.78;;
58446;SDS011;44240;51.840;7.258;2022-08-25T15:40:04;6.20;;;4.38;;
58446;SDS011;44240;51.840;7.258;2022-08-25T15:42:30;6.85;;;4.68;;
58446;SDS011;44240;51.840;7.258;2022-08-25T15:44:56;20.35;;;5.45;;
58446;SDS011;44240;51.840;7.258;2022-08-25T15:47:21;75.30;;;8.98;;
58446;SDS011;44240;51.840;7.258;2022-08-25T15:49:48;49.80;;;8.13;;
58446;SDS011;44240;51.840;7.258;2022-08-25T15:52:14;9.60;;;4.80;;
58446;SDS011;44240;51.840;7.258;2022-08-25T15:54:40;16.35;;;4.82;;
58446;SDS011;44240;51.840;7.258;2022-08-25T15:57:05;4.55;;;4.15;;
58446;SDS011;44240;51.840;7.258;2022-08-25T15:59:31;8.48;;;4.80;;
58446;SDS011;44240;51.840;7.258;2022-08-25T16:01:57;28.08;;;5.55;;
58446;SDS011;44240;51.840;7.258;2022-08-25T16:04:23;7.60;;;4.70;;
58446;SDS011;44240;51.840;7.258;2022-08-25T16:06:51;7.53;;;5.00;;
58446;SDS011;44240;51.840;7.258;2022-08-25T16:09:18;6.63;;;4.90;;
58446;SDS011;44240;51.840;7.258;2022-08-25T16:11:44;7.40;;;4.65;;
58446;SDS011;44240;51.840;7.258;2022-08-25T16:14:10;5.20;;;4.68;;
58446;SDS011;44240;51.840;7.258;2022-08-25T16:16:36;7.72;;;5.47;;
58446;SDS011;44240;51.840;7.258;2022-08-25T16:19:01;7.40;;;5.35;;
58446;SDS011;44240;51.840;7.258;2022-08-25T16:21:31;7.90;;;4.80;;
58446;SDS011;44240;51.840;7.258;2022-08-25T16:24:00;5.28;;;4.78;;
58446;SDS011;44240;51.840;7.258;2022-08-25T16:26:28;5.85;;;4.63;;
58446;SDS011;44240;51.840;7.258;2022-08-25T16:28:54;8.43;;;4.88;;
58446;SDS011;44240;51.840;7.258;2022-08-25T16:31:20;6.30;;;4.72;;
58446;SDS011;44240;51.840;7.258;2022-08-25T16:33:46;7.00;;;4.85;;
58446;SDS011;44240;51.840;7.258;2022-08-25T16:36:16;6.93;;;5.47;;
58446;SDS011;44240;51.840;7.258;2022-08-25T16:38:45;6.43;;;4.70;;